Time;durP1;ratioP1;P1;durP2;ratioP2;P2;SDS_P1;SDS_P2;PMS_P1;PMS_P2;Temp;Humidity;BMP_temperature;BMP_pressure;BME280_temperature;BME280_humidity;BME280_pressure;Samples;Min_cycle;Max_cycle;Signal;HPM_P1;HPM_P2
2021/08/29 00:01:30;;;;;;;;;10.00;8.00;;;;;17.60;68.49;101936.78;5035571;28;45695;-78
2021/08/29 00:03:56;;;;;;;;;7.00;5.75;;;;;17.63;68.89;101953.41;5035861;28;57186;-78
2021/08/29 00:06:21;;;;;;;;;7.50;6.00;;;;;17.62;68.81;101953.50;5035040;28;68160;-78
2021/08/29 00:08:46;;;;;;;;;6.25;6.25;;;;;17.63;68.93;101957.88;5035763;28;51280;-78
2021/08/29 00:11:12;;;;;;;;;8.50;6.25;;;;;17.51;68.90;101924.84;5036022;28;45829;-78
2021/08/29 00:13:37;;;;;;;;;5.75;5.00;;;;;17.67;68.71;101943.47;5035704;28;45324;-78
2021/08/29 00:16:02;;;;;;;;;6.25;5.00;;;;;17.78;69.17;101953.56;5035636;28;45447;-78
2021/08/29 00:18:28;;;;;;;;;8.25;5.50;;;;;17.84;68.86;101953.25;5035559;28;45459;-78
2021/08/29 00:20:53;;;;;;;;;5.75;5.75;;;;;17.67;68.63;101908.91;5035541;28;45463;-78
2021/08/29 00:23:18;;;;;;;;;7.75;7.00;;;;;17.78;69.14;101922.53;5035731;28;45909;-78
2021/08/29 00:25:44;;;;;;;;;7.50;5.25;;;;;17.91;68.42;101936.88;5035405;28;45914;-78
2021/08/29 00:28:09;;;;;;;;;7.25;4.75;;;;;17.94;68.63;101938.50;5034595;28;56111;-77
2021/08/29 00:30:34;;;;;;;;;6.00;5.00;;;;;17.90;68.83;101924.50;5034779;28;45356;-78
2021/08/29 00:33:00;;;;;;;;;7.50;5.75;;;;;18.04;68.19;101946.84;5035325;28;50728;-78
2021/08/29 00:35:25;;;;;;;;;7.00;6.00;;;;;17.97;68.18;101933.03;5035224;28;45341;-78
2021/08/29 00:37:51;;;;;;;;;9.50;5.75;;;;;18.00;68.82;101935.50;5034821;28;45869;-78
2021/08/29 00:40:20;;;;;;;;;5.50;4.25;;;;;17.98;68.22;101932.94;5035949;28;45430;-78
2021/08/29 00:42:48;;;;;;;;;9.00;8.00;;;;;17.92;68.03;101932.41;5035928;28;45395;-77
2021/08/29 00:45:13;;;;;;;;;5.25;4.75;;;;;17.94;68.55;101933.19;5034529;28;45581;-78
2021/08/29 00:47:39;;;;;;;;;4.50;4.50;;;;;17.92;68.87;101933.28;5035433;28;45614;-78
2021/08/29 00:50:06;;;;;;;;;8.25;6.00;;;;;17.92;68.71;101941.25;5035551;28;45474;-78
2021/08/29 00:52:35;;;;;;;;;11.00;8.00;;;;;17.70;68.57;101893.69;5035237;28;45522;-77
2021/08/29 00:55:00;;;;;;;;;7.00;5.75;;;;;17.92;68.73;101938.59;5035611;28;46359;-78
2021/08/29 00:57:27;;;;;;;;;5.50;5.00;;;;;17.91;68.04;101934.22;5034809;28;45646;-78
2021/08/29 00:59:53;;;;;;;;;7.00;7.00;;;;;17.88;68.33;101923.75;5034649;28;45384;-78
2021/08/29 01:02:24;;;;;;;;;7.75;6.00;;;;;17.83;68.48;101927.59;5034982;28;45544;-78
2021/08/29 01:05:03;;;;;;;;;7.00;5.75;;;;;17.78;69.13;101921.66;5034776;28;45483;-78
2021/08/29 01:07:58;;;;;;;;;7.00;7.00;;;;;17.72;69.22;101914.84;5034099;28;45313;-77
2021/08/29 01:10:32;;;;;;;;;6.00;6.00;;;;;17.63;68.46;101907.38;5024562;28;45376;-77
2021/08/29 01:12:59;;;;;;;;;8.50;8.50;;;;;17.66;69.10;101917.84;5035253;28;45468;-77
2021/08/29 01:15:28;;;;;;;;;7.75;6.00;;;;;17.56;68.90;101916.63;5034376;28;46219;-78
2021/08/29 01:17:57;;;;;;;;;11.00;6.00;;;;;17.36;69.79;101886.63;5034478;28;45506;-78
2021/08/29 01:21:01;;;;;;;;;8.50;6.00;;;;;17.48;69.37;101920.53;5034477;28;45431;-77
2021/08/29 01:23:28;;;;;;;;;6.50;5.00;;;;;17.39;68.84;101920.19;5034814;28;45521;-77
2021/08/29 01:26:01;;;;;;;;;8.25;6.50;;;;;17.31;70.20;101922.38;5034478;28;45507;-77
2021/08/29 01:28:53;;;;;;;;;7.25;6.00;;;;;16.99;70.04;101881.53;5034779;28;45742;-77
2021/08/29 01:31:20;;;;;;;;;7.00;7.00;;;;;17.17;70.09;101916.00;5036018;28;46744;-77
2021/08/29 01:33:47;;;;;;;;;9.00;6.00;;;;;17.16;70.77;101927.53;5034988;28;45305;-78
2021/08/29 01:36:14;;;;;;;;;7.00;5.75;;;;;17.14;70.63;101917.94;5034174;28;46217;-78
2021/08/29 01:38:41;;;;;;;;;5.50;5.00;;;;;17.12;70.96;101919.78;5033875;28;45816;-78
2021/08/29 01:41:06;;;;;;;;;6.00;4.50;;;;;17.09;71.26;101914.66;5034498;28;45687;-78
2021/08/29 01:43:33;;;;;;;;;11.75;7.25;;;;;16.98;71.13;101911.69;5033824;28;45574;-78
2021/08/29 01:46:00;;;;;;;;;7.50;6.00;;;;;17.00;71.59;101921.28;5035082;28;46715;-77
2021/08/29 01:48:25;;;;;;;;;7.00;6.50;;;;;16.99;71.20;101916.91;5032771;28;45801;-78
2021/08/29 01:50:51;;;;;;;;;6.25;4.50;;;;;17.01;71.69;101925.66;5033647;28;45423;-78
2021/08/29 01:53:16;;;;;;;;;7.50;6.50;;;;;17.01;71.48;101922.16;5034393;28;45364;-78
2021/08/29 01:55:42;;;;;;;;;8.00;7.00;;;;;17.00;71.68;101926.59;5033786;28;62772;-77
2021/08/29 01:58:07;;;;;;;;;6.75;5.00;;;;;16.98;71.43;101923.16;5034254;28;45393;-77
2021/08/29 02:00:43;;;;;;;;;7.50;5.50;;;;;16.77;72.09;101889.75;5033078;28;48793;-78
2021/08/29 02:03:08;;;;;;;;;7.50;6.25;;;;;16.92;71.96;101920.84;5034150;28;45751;-77
2021/08/29 02:05:35;;;;;;;;;6.25;5.00;;;;;16.86;72.07;101915.81;5033407;28;56700;-78
2021/08/29 02:08:01;;;;;;;;;8.75;5.00;;;;;16.85;71.79;101914.94;5034320;28;47241;-78
2021/08/29 02:10:27;;;;;;;;;6.75;6.25;;;;;16.90;72.32;101931.50;5033697;28;45605;-77
2021/08/29 02:13:02;;;;;;;;;7.00;6.00;;;;;16.90;71.92;101933.31;5034903;28;45472;-78
2021/08/29 02:15:35;;;;;;;;;9.00;6.25;;;;;16.86;72.51;101922.00;5033755;28;46277;-78
2021/08/29 02:18:05;;;;;;;;;5.75;5.75;;;;;16.83;72.16;101921.28;5033786;28;45455;-77
2021/08/29 02:20:31;;;;;;;;;8.75;5.00;;;;;16.90;72.26;101933.31;5034155;28;45330;-78
2021/08/29 02:22:57;;;;;;;;;10.00;6.75;;;;;16.89;72.86;101936.91;5034075;28;45465;-78
2021/08/29 02:25:22;;;;;;;;;8.25;7.00;;;;;16.83;72.30;101922.16;5033503;28;46198;-78
2021/08/29 02:27:48;;;;;;;;;9.00;9.00;;;;;16.93;72.94;101938.47;5032288;28;45241;-77
2021/08/29 02:30:15;;;;;;;;;8.00;7.00;;;;;16.91;72.30;101940.34;5033287;28;45570;-78
2021/08/29 02:32:42;;;;;;;;;12.50;9.75;;;;;16.86;72.00;101929.97;5033574;28;45346;-78
2021/08/29 02:35:09;;;;;;;;;12.75;8.75;;;;;16.83;71.73;101939.88;5033752;28;45773;-77
2021/08/29 02:37:36;;;;;;;;;9.00;7.50;;;;;16.81;71.84;101937.31;5033519;28;45414;-78
2021/08/29 02:40:05;;;;;;;;;11.25;8.25;;;;;16.78;73.14;101942.75;5033891;28;45443;-77
2021/08/29 02:42:30;;;;;;;;;11.75;9.00;;;;;16.74;73.36;101929.72;5033464;28;45370;-78
2021/08/29 02:44:59;;;;;;;;;9.00;7.75;;;;;16.80;73.21;101930.25;5033161;28;45387;-77
2021/08/29 02:47:27;;;;;;;;;10.00;9.50;;;;;16.80;72.90;101934.72;5014222;28;45866;-77
2021/08/29 02:49:53;;;;;;;;;9.50;8.25;;;;;16.83;72.96;101931.91;5033834;28;45493;-78
2021/08/29 02:52:20;;;;;;;;;13.75;10.25;;;;;16.89;72.83;101940.41;5032421;28;45516;-78
2021/08/29 02:54:47;;;;;;;;;10.75;9.50;;;;;16.95;73.09;101940.09;5033444;28;47164;-77
2021/08/29 02:57:14;;;;;;;;;7.25;6.75;;;;;16.95;72.99;101926.81;5033050;28;45881;-78
2021/08/29 02:59:39;;;;;;;;;10.50;10.50;;;;;17.04;72.49;101936.13;5034220;28;45379;-78
2021/08/29 03:02:10;;;;;;;;;10.00;8.25;;;;;17.03;72.91;101931.78;5036908;28;45487;-78
2021/08/29 03:04:35;;;;;;;;;11.50;10.50;;;;;17.09;73.01;101933.25;5019297;28;47704;-78
2021/08/29 03:07:01;;;;;;;;;11.00;10.50;;;;;17.14;73.16;101937.38;5037214;28;45647;-78
2021/08/29 03:09:33;;;;;;;;;10.25;10.25;;;;;17.18;73.06;101930.13;5036505;28;45368;-78
2021/08/29 03:12:00;;;;;;;;;14.00;10.00;;;;;17.20;72.83;101928.25;5037072;28;45479;-78
2021/08/29 03:14:25;;;;;;;;;11.50;8.50;;;;;17.24;73.00;101935.13;5036571;28;45393;-78
2021/08/29 03:16:51;;;;;;;;;14.00;12.75;;;;;17.10;72.76;101903.09;5035981;28;45376;-78
2021/08/29 03:19:16;;;;;;;;;12.00;11.50;;;;;17.17;72.48;101913.34;5036848;28;45296;-78
2021/08/29 03:21:42;;;;;;;;;10.00;10.00;;;;;17.25;72.06;101923.53;5037654;28;45439;-77
2021/08/29 03:24:08;;;;;;;;;10.75;10.25;;;;;17.08;72.41;101897.00;5033840;28;45856;-78
2021/08/29 03:26:33;;;;;;;;;12.75;10.50;;;;;17.18;72.67;101930.13;5036259;28;45492;-78
2021/08/29 03:28:59;;;;;;;;;10.00;8.00;;;;;17.14;73.02;101915.28;5035818;28;45506;-78
2021/08/29 03:31:24;;;;;;;;;12.00;10.00;;;;;17.17;72.11;101921.31;5036025;28;45387;-78
2021/08/29 03:33:51;;;;;;;;;12.50;9.50;;;;;17.14;72.46;101917.94;5035184;28;46137;-78
2021/08/29 03:36:23;;;;;;;;;12.75;10.00;;;;;16.99;72.52;101886.84;5036397;28;45599;-79
2021/08/29 03:38:53;;;;;;;;;13.00;12.00;;;;;17.14;72.69;101920.59;5041081;28;45461;-79
2021/08/29 03:41:19;;;;;;;;;10.50;10.50;;;;;17.12;72.60;101925.09;5035425;28;45504;-79
2021/08/29 03:43:45;;;;;;;;;14.75;11.50;;;;;17.10;72.84;101913.72;5036040;28;45601;-79
2021/08/29 03:46:13;;;;;;;;;11.25;10.00;;;;;16.95;72.59;101896.75;5034767;28;45511;-79
2021/08/29 03:48:38;;;;;;;;;12.50;12.00;;;;;16.89;73.05;101889.13;5035522;28;45588;-79
2021/08/29 03:51:04;;;;;;;;;15.00;12.00;;;;;16.98;73.05;101901.94;5034710;28;45415;-79
2021/08/29 03:53:30;;;;;;;;;14.00;13.00;;;;;16.90;73.25;101902.31;5034659;28;46310;-79
2021/08/29 03:55:56;;;;;;;;;12.25;9.50;;;;;16.86;73.48;101899.88;5034944;28;45786;-78
2021/08/29 03:58:22;;;;;;;;;13.75;10.25;;;;;16.82;73.13;101904.50;5035985;28;45399;-79
2021/08/29 04:00:48;;;;;;;;;15.50;12.00;;;;;16.73;73.80;101889.03;5035761;28;45479;-79
2021/08/29 04:03:13;;;;;;;;;12.75;8.75;;;;;16.65;73.90;101886.75;5035096;28;47858;-79
2021/08/29 04:05:39;;;;;;;;;13.25;11.00;;;;;16.69;73.50;101898.03;5035324;28;45408;-79
2021/08/29 04:08:08;;;;;;;;;9.00;7.50;;;;;16.64;72.81;101903.56;5035362;28;45831;-79
2021/08/29 04:10:36;;;;;;;;;11.00;11.00;;;;;16.57;73.69;101910.13;5035996;28;45382;-79
2021/08/29 04:13:01;;;;;;;;;9.75;9.25;;;;;16.45;74.39;101905.44;5035742;28;46161;-79
2021/08/29 04:15:27;;;;;;;;;12.00;10.25;;;;;16.43;74.18;101904.63;5035155;28;45286;-78
2021/08/29 04:17:53;;;;;;;;;10.00;8.50;;;;;16.34;74.35;101911.28;5031789;28;45471;-78
2021/08/29 04:20:18;;;;;;;;;9.00;8.25;;;;;16.29;75.06;101913.28;5035896;28;45566;-79
2021/08/29 04:22:44;;;;;;;;;8.75;8.75;;;;;16.30;74.55;101911.50;5034435;28;46126;-78
2021/08/29 04:25:10;;;;;;;;;11.75;8.25;;;;;16.26;74.97;101905.47;5035823;28;45395;-79
2021/08/29 04:27:36;;;;;;;;;15.00;11.50;;;;;16.23;74.54;101904.75;5036450;28;45339;-79
2021/08/29 04:30:02;;;;;;;;;10.50;8.25;;;;;16.13;75.00;101897.25;5035704;28;45818;-78
2021/08/29 04:32:30;;;;;;;;;13.00;11.25;;;;;16.13;75.21;101912.28;5034448;28;45543;-78
2021/08/29 04:34:55;;;;;;;;;10.00;10.00;;;;;16.05;75.61;101898.53;5035365;28;45870;-78
2021/08/29 04:37:21;;;;;;;;;11.75;7.00;;;;;16.11;75.05;101911.50;5016691;28;45559;-78
2021/08/29 04:39:46;;;;;;;;;10.25;9.00;;;;;16.09;75.52;101908.06;5034961;28;45403;-78
2021/08/29 04:42:11;;;;;;;;;11.50;10.25;;;;;16.09;74.92;101908.94;5034899;28;46191;-78
2021/08/29 04:44:37;;;;;;;;;14.00;8.00;;;;;16.04;75.00;101905.63;5034916;28;45457;-79
2021/08/29 04:47:03;;;;;;;;;9.00;7.50;;;;;16.06;74.84;101906.41;5034653;28;45304;-78
2021/08/29 04:49:28;;;;;;;;;11.50;9.50;;;;;15.83;74.58;101875.69;5035317;28;49156;-78
2021/08/29 04:51:53;;;;;;;;;13.25;9.50;;;;;16.00;75.38;101908.50;5035248;28;45376;-79
2021/08/29 04:54:18;;;;;;;;;8.50;7.00;;;;;15.98;75.58;101907.72;5034505;28;45531;-78
2021/08/29 04:56:44;;;;;;;;;9.00;9.00;;;;;15.96;75.89;101909.56;5034784;28;45361;-78
2021/08/29 04:59:09;;;;;;;;;11.50;9.25;;;;;15.96;75.53;101914.88;5035434;28;45505;-79
2021/08/29 05:01:34;;;;;;;;;10.75;9.00;;;;;15.94;75.86;101912.31;5016215;28;52380;-79
2021/08/29 05:04:00;;;;;;;;;17.25;11.25;;;;;15.95;75.21;101915.81;5034944;28;45379;-79
2021/08/29 05:06:29;;;;;;;;;17.25;15.25;;;;;15.87;75.68;101901.13;5033964;28;45510;-79
2021/08/29 05:08:54;;;;;;;;;20.75;18.25;;;;;15.97;75.73;101911.28;5034888;28;45518;-78
2021/08/29 05:11:21;;;;;;;;;23.50;19.50;;;;;15.94;75.73;101907.00;5034983;28;47981;-78
2021/08/29 05:13:46;;;;;;;;;22.75;20.25;;;;;15.95;76.24;101911.34;5034856;28;45463;-78
2021/08/29 05:16:11;;;;;;;;;16.75;13.00;;;;;15.95;75.78;101915.81;5035273;28;45337;-79
2021/08/29 05:18:36;;;;;;;;;18.25;11.75;;;;;15.95;75.91;101914.00;5034292;28;46021;-78
2021/08/29 05:21:02;;;;;;;;;20.75;16.00;;;;;15.75;75.89;101877.81;5033623;28;54864;-78
2021/08/29 05:23:27;;;;;;;;;18.25;14.75;;;;;15.85;76.45;101907.41;5033598;28;53654;-78
2021/08/29 05:25:52;;;;;;;;;13.25;12.75;;;;;15.94;75.86;101917.59;5040025;28;45628;-79
2021/08/29 05:28:18;;;;;;;;;12.50;12.25;;;;;15.95;75.98;101913.16;5034941;28;45397;-78
2021/08/29 05:30:44;;;;;;;;;10.00;9.00;;;;;15.99;76.17;101917.38;5034885;28;45533;-79
2021/08/29 05:33:09;;;;;;;;;8.75;7.25;;;;;15.88;75.96;101902.84;5033821;28;45648;-79
2021/08/29 05:35:35;;;;;;;;;13.75;11.50;;;;;15.95;75.78;101915.81;5032993;28;53044;-78
2021/08/29 05:38:00;;;;;;;;;14.00;10.75;;;;;15.94;76.35;101925.56;5034660;28;45335;-79
2021/08/29 05:40:25;;;;;;;;;19.00;14.00;;;;;15.65;76.32;101872.09;5034300;28;45998;-77
2021/08/29 05:42:51;;;;;;;;;16.50;13.00;;;;;15.96;75.79;101921.03;5034608;28;45410;-79
2021/08/29 05:45:16;;;;;;;;;16.50;12.00;;;;;16.05;76.48;101928.56;5033648;28;48210;-79
2021/08/29 05:47:41;;;;;;;;;15.25;13.25;;;;;16.08;75.78;101931.09;5033655;28;45494;-78
2021/08/29 05:50:07;;;;;;;;;23.25;14.25;;;;;16.11;75.89;101927.41;5033777;28;45543;-79
2021/08/29 05:52:32;;;;;;;;;21.00;18.00;;;;;16.17;75.95;101929.78;5033132;28;45553;-78
2021/08/29 05:54:58;;;;;;;;;19.25;15.75;;;;;16.11;75.80;101922.09;5033796;28;54445;-79
2021/08/29 05:57:23;;;;;;;;;18.50;12.50;;;;;16.16;75.77;101918.31;5033394;28;58383;-78
2021/08/29 05:59:48;;;;;;;;;15.50;12.00;;;;;16.16;76.43;101909.50;5033877;28;47689;-79
2021/08/29 06:02:13;;;;;;;;;18.00;14.75;;;;;16.33;75.84;101921.94;5033779;28;45474;-78
2021/08/29 06:04:41;;;;;;;;;14.50;12.25;;;;;16.39;75.73;101925.19;5033445;28;45462;-78
2021/08/29 06:07:07;;;;;;;;;16.75;13.75;;;;;16.42;75.96;101921.50;5030557;28;45593;-78
2021/08/29 06:09:32;;;;;;;;;18.25;13.50;;;;;16.47;75.66;101913.31;5032942;28;46263;-78
2021/08/29 06:11:58;;;;;;;;;15.75;12.50;;;;;16.56;76.02;101923.50;5033479;28;51466;-79
2021/08/29 06:14:23;;;;;;;;;20.75;15.25;;;;;16.64;75.59;101927.47;5033898;28;45379;-78
2021/08/29 06:16:48;;;;;;;;;22.75;17.25;;;;;16.71;75.72;101922.78;5033964;28;45475;-79
2021/08/29 06:19:14;;;;;;;;;20.75;15.25;;;;;16.80;75.14;101927.59;5032687;28;54076;-79
2021/08/29 06:21:39;;;;;;;;;18.50;16.75;;;;;16.90;74.85;101928.00;5015905;28;45468;-79
2021/08/29 06:24:05;;;;;;;;;16.75;14.50;;;;;16.85;75.15;101904.34;5015664;28;45531;-79
2021/08/29 06:26:30;;;;;;;;;23.00;19.00;;;;;17.06;74.78;101917.47;5033497;28;46178;-78
2021/08/29 06:28:55;;;;;;;;;20.25;18.00;;;;;17.14;74.78;101924.09;5033580;28;45527;-78
2021/08/29 06:31:20;;;;;;;;;12.75;12.75;;;;;17.21;74.40;101925.50;5027038;28;55785;-78
2021/08/29 06:33:46;;;;;;;;;17.50;14.00;;;;;17.28;74.27;101936.69;5032467;28;49302;-78
2021/08/29 06:36:11;;;;;;;;;22.00;15.25;;;;;17.31;74.38;101935.66;5032603;28;45612;-79
2021/08/29 06:38:36;;;;;;;;;16.00;14.00;;;;;17.41;73.98;101928.91;5032442;28;56531;-80
2021/08/29 06:41:02;;;;;;;;;17.50;15.75;;;;;17.30;73.80;101896.75;5032810;28;45390;-79
2021/08/29 06:43:27;;;;;;;;;20.75;16.00;;;;;17.47;73.54;101926.78;5031758;28;45506;-77
2021/08/29 06:45:52;;;;;;;;;15.50;15.00;;;;;17.53;73.38;101940.69;5032725;28;48335;-77
2021/08/29 06:48:17;;;;;;;;;15.50;13.00;;;;;17.48;73.36;101932.97;5032029;28;46080;-79
2021/08/29 06:50:43;;;;;;;;;12.75;11.50;;;;;17.50;73.51;101928.44;5032927;28;53778;-79
2021/08/29 06:53:08;;;;;;;;;16.75;14.25;;;;;17.53;73.55;101922.09;5032574;28;45384;-80
2021/08/29 06:55:33;;;;;;;;;11.75;11.75;;;;;17.71;73.41;101942.38;5032222;28;45541;-80
2021/08/29 06:57:59;;;;;;;;;13.75;10.50;;;;;17.80;73.25;101941.94;5033445;28;46131;-80
2021/08/29 07:00:24;;;;;;;;;13.00;11.25;;;;;17.83;72.86;101939.09;5031925;28;51813;-82
2021/08/29 07:02:49;;;;;;;;;14.25;9.25;;;;;17.91;72.85;101949.31;5029168;28;45440;-80
2021/08/29 07:05:15;;;;;;;;;11.25;10.00;;;;;17.96;72.06;101948.13;5031193;28;47606;-80
2021/08/29 07:07:40;;;;;;;;;13.25;8.00;;;;;17.99;72.15;101934.63;5032174;28;45483;-79
2021/08/29 07:10:05;;;;;;;;;11.25;9.00;;;;;17.98;71.78;101934.75;5032250;28;57330;-80
2021/08/29 07:12:31;;;;;;;;;10.50;8.75;;;;;18.01;72.24;101950.53;5032466;28;45379;-80
2021/08/29 07:14:56;;;;;;;;;8.50;8.50;;;;;18.04;72.09;101954.81;5014266;28;45672;-80
2021/08/29 07:17:21;;;;;;;;;14.50;10.00;;;;;17.98;72.20;101945.38;5031002;28;63857;-79
2021/08/29 07:19:47;;;;;;;;;8.75;7.50;;;;;17.93;71.90;101953.59;5031874;28;48486;-80
2021/08/29 07:22:13;;;;;;;;;11.50;10.00;;;;;17.88;72.10;101945.00;5034623;28;45389;-79
2021/08/29 07:24:38;;;;;;;;;11.25;9.50;;;;;17.83;71.75;101949.72;5030789;28;45462;-79
2021/08/29 07:27:04;;;;;;;;;12.00;10.50;;;;;17.80;72.03;101949.91;5033183;28;46122;-79
2021/08/29 07:29:30;;;;;;;;;11.25;11.00;;;;;17.79;72.02;101957.94;5031011;28;45733;-79
2021/08/29 07:31:56;;;;;;;;;14.75;11.75;;;;;17.78;71.78;101945.59;5032560;28;45502;-79
2021/08/29 07:34:21;;;;;;;;;12.75;10.75;;;;;17.89;72.08;101953.84;5032725;28;45490;-81
2021/08/29 07:36:46;;;;;;;;;9.00;9.00;;;;;17.95;72.25;101951.72;5030981;28;45499;-84
2021/08/29 07:39:12;;;;;;;;;13.25;11.75;;;;;18.02;71.51;101946.94;5031830;28;45391;-77
2021/08/29 07:41:37;;;;;;;;;12.75;8.75;;;;;18.06;71.48;101955.59;5031800;28;45426;-79
2021/08/29 07:44:02;;;;;;;;;12.50;10.25;;;;;18.13;71.49;101941.03;5031823;28;45383;-83
2021/08/29 07:46:29;;;;;;;;;15.25;14.00;;;;;18.15;71.03;101945.28;5015079;28;46220;-79
2021/08/29 07:48:54;;;;;;;;;19.00;15.75;;;;;18.22;71.61;101951.16;5036363;28;45782;-81
2021/08/29 07:51:20;;;;;;;;;18.75;16.25;;;;;18.25;71.32;101940.31;5035550;28;45876;-81
2021/08/29 07:53:45;;;;;;;;;19.25;16.25;;;;;18.32;70.83;101944.34;5035287;28;45516;-80
2021/08/29 07:56:10;;;;;;;;;17.75;14.75;;;;;18.34;70.57;101954.94;5036059;28;46249;-80
2021/08/29 07:58:36;;;;;;;;;18.25;15.00;;;;;18.36;70.94;101948.56;5034884;28;45257;-82
2021/08/29 08:01:01;;;;;;;;;56.25;43.50;;;;;18.42;70.89;101953.53;5036498;28;45444;-80
2021/08/29 08:03:27;;;;;;;;;48.75;40.00;;;;;18.46;70.86;101949.75;5034133;28;45479;-79
2021/08/29 08:05:52;;;;;;;;;16.75;16.00;;;;;18.59;70.52;101959.72;5035359;28;46243;-83
2021/08/29 08:08:17;;;;;;;;;20.75;16.75;;;;;18.61;70.45;101950.69;5035436;28;45414;-77
2021/08/29 08:10:43;;;;;;;;;20.25;18.75;;;;;18.70;70.15;101958.19;5035245;28;45361;-80
2021/08/29 08:13:08;;;;;;;;;18.00;16.25;;;;;18.76;69.90;101959.63;5035408;28;45416;-80
2021/08/29 08:15:34;;;;;;;;;18.75;18.00;;;;;18.93;69.81;101956.84;5034912;28;45476;-83
2021/08/29 08:17:59;;;;;;;;;21.25;20.75;;;;;19.20;69.77;101957.00;5034566;28;45451;-79
2021/08/29 08:20:24;;;;;;;;;18.75;15.75;;;;;19.59;69.17;101949.38;5034970;28;55294;-79
2021/08/29 08:22:50;;;;;;;;;24.50;19.25;;;;;19.97;67.98;101945.19;5035652;28;45567;-80
2021/08/29 08:25:15;;;;;;;;;21.00;16.75;;;;;20.16;67.87;101934.22;5034798;28;46149;-77
2021/08/29 08:27:41;;;;;;;;;19.25;15.00;;;;;20.43;66.37;101939.56;5035340;28;45392;-79
2021/08/29 08:30:07;;;;;;;;;35.50;29.00;;;;;20.57;66.03;101939.56;5035725;28;45440;-79
2021/08/29 08:32:33;;;;;;;;;24.25;20.50;;;;;20.63;65.56;101937.44;5035359;28;45206;-79
2021/08/29 08:34:58;;;;;;;;;14.75;14.75;;;;;20.67;65.94;101939.78;5034652;28;46245;-79
2021/08/29 08:37:23;;;;;;;;;14.25;13.00;;;;;20.70;65.47;101946.75;5035136;28;51984;-79
2021/08/29 08:39:48;;;;;;;;;18.50;14.75;;;;;20.75;64.90;101936.63;5035176;28;45485;-78
2021/08/29 08:42:15;;;;;;;;;14.75;14.00;;;;;20.75;64.70;101929.47;5035050;28;45339;-78
2021/08/29 08:44:42;;;;;;;;;16.25;15.00;;;;;20.83;64.24;101951.19;5034413;28;45677;-78
2021/08/29 08:47:10;;;;;;;;;15.75;12.25;;;;;20.84;64.24;101946.69;5034908;28;45873;-78
2021/08/29 08:49:37;;;;;;;;;11.50;11.00;;;;;20.79;64.99;101946.16;5035022;28;45393;-78
2021/08/29 08:52:11;;;;;;;;;14.00;13.00;;;;;20.64;64.55;101934.66;5035574;28;45590;-78
2021/08/29 08:54:38;;;;;;;;;11.75;11.50;;;;;20.62;64.60;101949.06;5035080;28;45576;-78
2021/08/29 08:57:05;;;;;;;;;17.25;12.75;;;;;20.41;64.40;101933.50;5034220;28;45320;-78
2021/08/29 08:59:32;;;;;;;;;17.75;13.00;;;;;20.26;64.38;101948.69;5033402;28;45436;-77
2021/08/29 09:01:59;;;;;;;;;14.75;14.50;;;;;20.04;64.71;101951.84;5035260;28;45309;-77
2021/08/29 09:04:25;;;;;;;;;15.75;14.00;;;;;19.91;65.31;101952.72;5034574;28;46260;-77
2021/08/29 09:06:51;;;;;;;;;15.50;14.25;;;;;19.93;65.94;101948.16;5034963;28;45463;-77
2021/08/29 09:09:17;;;;;;;;;16.50;14.25;;;;;20.07;65.52;101937.47;5034783;28;45502;-77
2021/08/29 09:11:42;;;;;;;;;16.25;14.00;;;;;20.32;65.53;101929.59;5034134;28;50398;-78
2021/08/29 09:14:08;;;;;;;;;14.25;11.00;;;;;20.53;65.22;101931.84;5034982;28;45704;-78
2021/08/29 09:16:33;;;;;;;;;14.25;12.75;;;;;20.80;64.58;101935.34;5034620;28;45765;-78
2021/08/29 09:19:02;;;;;;;;;16.50;14.00;;;;;21.02;64.33;101940.09;5035257;28;45415;-78
2021/08/29 09:21:30;;;;;;;;;13.75;9.50;;;;;21.18;63.50;101939.06;5035201;28;45468;-76
2021/08/29 09:23:58;;;;;;;;;11.00;11.00;;;;;21.15;63.17;101918.75;5033839;28;46361;-77
2021/08/29 09:26:25;;;;;;;;;11.50;10.25;;;;;21.30;62.43;101927.56;5034173;28;45923;-77
2021/08/29 09:28:55;;;;;;;;;12.00;10.50;;;;;21.38;62.65;101935.91;5034632;28;45609;-78
2021/08/29 09:31:21;;;;;;;;;14.00;9.25;;;;;21.43;62.80;101932.91;5034779;28;45367;-78
2021/08/29 09:34:00;;;;;;;;;13.00;10.50;;;;;21.55;62.29;101932.03;5035113;28;45238;-78
2021/08/29 09:36:32;;;;;;;;;7.50;7.50;;;;;21.62;61.71;101928.00;5036971;28;45742;-78
2021/08/29 09:39:19;;;;;;;;;11.75;8.75;;;;;21.72;61.97;101933.56;5040348;28;45540;-77
2021/08/29 09:41:45;;;;;;;;;13.50;9.50;;;;;21.74;61.02;101939.63;5034121;28;45467;-78
2021/08/29 09:44:20;;;;;;;;;8.50;8.50;;;;;21.81;61.63;101930.19;5032936;28;47303;-78
2021/08/29 09:46:53;;;;;;;;;9.50;9.50;;;;;21.86;60.93;101936.06;5020991;28;45444;-78
2021/08/29 09:49:26;;;;;;;;;7.25;7.25;;;;;21.78;60.77;101909.88;5016491;28;45459;-78
2021/08/29 09:51:52;;;;;;;;;10.50;9.75;;;;;21.97;60.33;101928.13;5034160;28;45419;-78
2021/08/29 09:54:40;;;;;;;;;13.25;8.25;;;;;22.16;60.23;101932.19;5033912;28;46069;-78
2021/08/29 09:57:10;;;;;;;;;9.75;8.00;;;;;22.20;59.62;101936.38;5033975;28;45462;-77
2021/08/29 09:59:38;;;;;;;;;9.00;7.00;;;;;22.18;60.22;101928.41;5034055;28;45525;-78
2021/08/29 10:02:04;;;;;;;;;8.75;6.75;;;;;22.05;59.62;101931.13;5034833;28;45658;-78
2021/08/29 10:04:29;;;;;;;;;6.25;6.25;;;;;21.93;60.22;101929.34;5033946;28;47839;-78
2021/08/29 10:06:55;;;;;;;;;8.25;7.00;;;;;21.81;59.94;101932.88;5033784;28;45391;-78
2021/08/29 10:09:27;;;;;;;;;10.00;7.75;;;;;21.60;59.98;101930.75;5032667;28;45398;-78
2021/08/29 10:11:52;;;;;;;;;8.00;7.00;;;;;21.48;60.23;101933.44;5034303;28;45321;-78
2021/08/29 10:14:19;;;;;;;;;10.50;8.75;;;;;21.57;60.89;101930.13;5033842;28;46202;-78
2021/08/29 10:16:45;;;;;;;;;10.75;9.00;;;;;21.87;60.67;101927.06;5033035;28;45656;-78
2021/08/29 10:19:14;;;;;;;;;7.75;6.50;;;;;22.08;59.87;101909.50;5036195;28;45535;-80
2021/08/29 10:21:40;;;;;;;;;23.75;20.75;;;;;22.51;59.78;101929.59;5033621;28;45416;-86
2021/08/29 10:24:06;;;;;;;;;9.75;7.50;;;;;22.78;59.03;101924.00;5032668;28;45530;-81
2021/08/29 10:26:33;;;;;;;;;7.50;7.00;;;;;22.95;58.33;101918.22;5032175;28;45527;-81
2021/08/29 10:29:04;;;;;;;;;8.00;6.75;;;;;22.98;57.79;101930.56;5027964;28;45756;-76
2021/08/29 10:31:34;;;;;;;;;8.25;8.25;;;;;23.02;58.08;101922.16;5033535;28;45970;-80
2021/08/29 10:34:01;;;;;;;;;7.00;7.00;;;;;23.26;57.33;101918.53;5034263;28;45402;-75
2021/08/29 10:36:27;;;;;;;;;10.50;7.25;;;;;23.50;57.76;101922.00;5033222;28;45266;-77
2021/08/29 10:38:52;;;;;;;;;9.00;7.75;;;;;23.61;56.86;101924.69;5033673;28;45302;-80
2021/08/29 10:41:22;;;;;;;;;10.00;8.00;;;;;23.75;56.41;101915.56;5035320;28;45333;-77
2021/08/29 10:43:52;;;;;;;;;8.75;8.00;;;;;23.91;56.07;101917.88;5033880;28;45590;-79
2021/08/29 10:46:19;;;;;;;;;7.00;6.75;;;;;24.03;56.49;101911.50;5033799;28;45711;-76
2021/08/29 10:48:49;;;;;;;;;7.50;7.50;;;;;24.18;55.49;101912.94;5034232;28;45378;-77
2021/08/29 10:51:17;;;;;;;;;9.00;8.00;;;;;24.24;54.35;101908.06;5032462;28;45522;-76
2021/08/29 10:53:53;;;;;;;;;7.00;7.00;;;;;24.37;54.59;101914.13;5033112;28;46225;-73
2021/08/29 10:56:18;;;;;;;;;6.50;6.00;;;;;24.44;53.98;101915.34;5021827;28;45674;-81
2021/08/29 10:58:48;;;;;;;;;7.67;7.67;;;;;24.43;54.52;101903.75;5032926;28;45466;-73
2021/08/29 11:01:33;;;;;;;;;7.00;5.75;;;;;24.51;54.41;101905.78;5033142;28;45552;-78
2021/08/29 11:03:58;;;;;;;;;7.00;7.00;;;;;24.70;53.82;101907.81;5033577;28;46643;-77
2021/08/29 11:07:03;;;;;;;;;9.25;7.25;;;;;24.77;54.24;101902.75;5033053;28;45566;-76
2021/08/29 11:09:34;;;;;;;;;9.50;8.00;;;;;24.63;52.78;101898.53;5032961;28;45345;-83
2021/08/29 11:12:00;;;;;;;;;10.00;8.25;;;;;24.51;52.56;101905.78;5033261;28;45387;-74
2021/08/29 11:14:39;;;;;;;;;10.00;8.00;;;;;24.32;53.56;101900.19;5032788;28;45464;-74
2021/08/29 11:17:09;;;;;;;;;9.50;8.50;;;;;24.14;53.44;101892.69;5033275;28;45624;-75